sensor_id;sensor_type;location;lat;lon;timestamp;pressure;altitude;pressure_sealevel;temperature;humidity
77005;BME280;67261;53.132;18.006;2023-12-22T00:02:07;97104.80;;;5.62;73.81
77005;BME280;67261;53.132;18.006;2023-12-22T00:04:34;97104.19;;;5.62;73.39
77005;BME280;67261;53.132;18.006;2023-12-22T00:07:01;97111.77;;;5.62;73.27
77005;BME280;67261;53.132;18.006;2023-12-22T00:09:28;97108.67;;;5.62;73.06
77005;BME280;67261;53.132;18.006;2023-12-22T00:11:54;97109.59;;;5.64;73.63
77005;BME280;67261;53.132;18.006;2023-12-22T00:14:21;97110.16;;;5.73;74.01
77005;BME280;67261;53.132;18.006;2023-12-22T00:16:48;97107.52;;;5.81;73.45
77005;BME280;67261;53.132;18.006;2023-12-22T00:19:15;97104.94;;;5.84;73.05
77005;BME280;67261;53.132;18.006;2023-12-22T00:21:42;97097.67;;;5.83;72.84
77005;BME280;67261;53.132;18.006;2023-12-22T00:24:09;97097.58;;;5.80;73.13
77005;BME280;67261;53.132;18.006;2023-12-22T00:26:36;97095.59;;;5.77;73.08
77005;BME280;67261;53.132;18.006;2023-12-22T00:29:03;97099.95;;;5.75;72.92
77005;BME280;67261;53.132;18.006;2023-12-22T00:31:29;97104.33;;;5.73;72.79
77005;BME280;67261;53.132;18.006;2023-12-22T00:33:56;97108.53;;;5.72;73.45
77005;BME280;67261;53.132;18.006;2023-12-22T00:36:23;97103.84;;;5.72;73.30
77005;BME280;67261;53.132;18.006;2023-12-22T00:38:51;97115.63;;;5.70;73.13
77005;BME280;67261;53.132;18.006;2023-12-22T00:41:18;97128.11;;;5.68;73.99
77005;BME280;67261;53.132;18.006;2023-12-22T00:43:45;97155.65;;;5.65;74.15
77005;BME280;67261;53.132;18.006;2023-12-22T00:46:13;97159.03;;;5.61;74.52
77005;BME280;67261;53.132;18.006;2023-12-22T00:48:40;97184.83;;;5.54;74.90
77005;BME280;67261;53.132;18.006;2023-12-22T00:51:07;97178.11;;;5.46;75.50
77005;BME280;67261;53.132;18.006;2023-12-22T00:53:34;97191.08;;;5.37;76.05
77005;BME280;67261;53.132;18.006;2023-12-22T00:56:01;97186.17;;;5.28;76.29
77005;BME280;67261;53.132;18.006;2023-12-22T00:58:30;97196.10;;;5.23;76.84
77005;BME280;67261;53.132;18.006;2023-12-22T01:00:57;97198.86;;;5.16;77.28
77005;BME280;67261;53.132;18.006;2023-12-22T01:03:24;97196.54;;;5.09;77.57
77005;BME280;67261;53.132;18.006;2023-12-22T01:05:50;97200.84;;;5.03;77.86
77005;BME280;67261;53.132;18.006;2023-12-22T01:08:17;97195.05;;;4.96;78.20
77005;BME280;67261;53.132;18.006;2023-12-22T01:10:44;97191.08;;;4.89;78.33
77005;BME280;67261;53.132;18.006;2023-12-22T01:13:11;97189.26;;;4.85;78.37
77005;BME280;67261;53.132;18.006;2023-12-22T01:15:38;97184.98;;;4.80;78.35
77005;BME280;67261;53.132;18.006;2023-12-22T01:18:05;97183.89;;;4.75;78.26
77005;BME280;67261;53.132;18.006;2023-12-22T01:20:32;97179.17;;;4.70;78.27
77005;BME280;67261;53.132;18.006;2023-12-22T01:22:59;97175.63;;;4.66;78.26
77005;BME280;67261;53.132;18.006;2023-12-22T01:25:26;97179.53;;;4.64;78.40
77005;BME280;67261;53.132;18.006;2023-12-22T01:27:52;97183.90;;;4.64;78.43
77005;BME280;67261;53.132;18.006;2023-12-22T01:30:19;97183.86;;;4.66;78.50
77005;BME280;67261;53.132;18.006;2023-12-22T01:32:46;97185.27;;;4.67;78.35
77005;BME280;67261;53.132;18.006;2023-12-22T01:35:14;97190.64;;;4.67;78.03
77005;BME280;67261;53.132;18.006;2023-12-22T01:37:40;97195.94;;;4.68;77.95
77005;BME280;67261;53.132;18.006;2023-12-22T01:40:08;97198.45;;;4.69;77.87
77005;BME280;67261;53.132;18.006;2023-12-22T01:42:35;97197.13;;;4.70;77.87
77005;BME280;67261;53.132;18.006;2023-12-22T01:45:02;97199.98;;;4.71;77.45
77005;BME280;67261;53.132;18.006;2023-12-22T01:47:29;97197.27;;;4.72;77.47
77005;BME280;67261;53.132;18.006;2023-12-22T01:49:56;97202.24;;;4.72;77.55
77005;BME280;67261;53.132;18.006;2023-12-22T01:52:23;97206.57;;;4.73;77.77
77005;BME280;67261;53.132;18.006;2023-12-22T01:54:50;97206.77;;;4.71;77.59
77005;BME280;67261;53.132;18.006;2023-12-22T01:57:18;97221.00;;;4.70;77.62
77005;BME280;67261;53.132;18.006;2023-12-22T01:59:46;97220.88;;;4.67;77.81
77005;BME280;67261;53.132;18.006;2023-12-22T02:02:15;97223.66;;;4.62;78.04
77005;BME280;67261;53.132;18.006;2023-12-22T02:04:44;97229.77;;;4.58;78.05
77005;BME280;67261;53.132;18.006;2023-12-22T02:07:12;97235.61;;;4.56;78.34
77005;BME280;67261;53.132;18.006;2023-12-22T02:09:39;97235.77;;;4.54;78.59
77005;BME280;67261;53.132;18.006;2023-12-22T02:12:06;97227.65;;;4.50;78.62
77005;BME280;67261;53.132;18.006;2023-12-22T02:14:33;97230.60;;;4.46;78.59
77005;BME280;67261;53.132;18.006;2023-12-22T02:17:21;97236.08;;;4.44;78.53
77005;BME280;67261;53.132;18.006;2023-12-22T02:19:51;97237.75;;;4.41;78.61
77005;BME280;67261;53.132;18.006;2023-12-22T02:22:18;97226.20;;;4.39;78.53
77005;BME280;67261;53.132;18.006;2023-12-22T02:24:44;97231.52;;;4.37;78.79
77005;BME280;67261;53.132;18.006;2023-12-22T02:27:34;97227.84;;;4.36;78.52
77005;BME280;67261;53.132;18.006;2023-12-22T02:30:31;97225.86;;;4.35;78.46
77005;BME280;67261;53.132;18.006;2023-12-22T02:33:00;97241.16;;;4.34;78.43
77005;BME280;67261;53.132;18.006;2023-12-22T02:35:29;97241.86;;;4.32;78.12
77005;BME280;67261;53.132;18.006;2023-12-22T02:37:58;97244.40;;;4.32;78.22
77005;BME280;67261;53.132;18.006;2023-12-22T02:40:26;97249.11;;;4.33;78.16
77005;BME280;67261;53.132;18.006;2023-12-22T02:42:53;97246.25;;;4.34;77.91
77005;BME280;67261;53.132;18.006;2023-12-22T02:45:21;97248.84;;;4.31;78.04
77005;BME280;67261;53.132;18.006;2023-12-22T02:47:48;97245.52;;;4.31;77.82
77005;BME280;67261;53.132;18.006;2023-12-22T02:50:16;97252.14;;;4.29;77.65
77005;BME280;67261;53.132;18.006;2023-12-22T02:52:43;97255.69;;;4.27;77.83
77005;BME280;67261;53.132;18.006;2023-12-22T02:55:10;97245.51;;;4.26;77.72
77005;BME280;67261;53.132;18.006;2023-12-22T02:57:37;97245.66;;;4.25;77.19
77005;BME280;67261;53.132;18.006;2023-12-22T03:00:04;97248.38;;;4.24;76.70
77005;BME280;67261;53.132;18.006;2023-12-22T03:02:31;97244.54;;;4.24;76.59
77005;BME280;67261;53.132;18.006;2023-12-22T03:04:58;97250.02;;;4.22;76.20
77005;BME280;67261;53.132;18.006;2023-12-22T03:07:25;97257.80;;;4.22;75.96
77005;BME280;67261;53.132;18.006;2023-12-22T03:09:52;97255.47;;;4.22;75.58
77005;BME280;67261;53.132;18.006;2023-12-22T03:12:19;97249.74;;;4.23;75.76
77005;BME280;67261;53.132;18.006;2023-12-22T03:14:46;97248.93;;;4.25;74.93
77005;BME280;67261;53.132;18.006;2023-12-22T03:17:13;97246.52;;;4.28;74.33
77005;BME280;67261;53.132;18.006;2023-12-22T03:19:41;97244.16;;;4.31;74.61
77005;BME280;67261;53.132;18.006;2023-12-22T03:22:08;97246.17;;;4.34;74.34
77005;BME280;67261;53.132;18.006;2023-12-22T03:24:35;97245.02;;;4.38;73.90
77005;BME280;67261;53.132;18.006;2023-12-22T03:27:03;97252.34;;;4.44;72.93
77005;BME280;67261;53.132;18.006;2023-12-22T03:29:31;97258.35;;;4.46;72.30
77005;BME280;67261;53.132;18.006;2023-12-22T03:31:57;97264.64;;;4.44;72.35
77005;BME280;67261;53.132;18.006;2023-12-22T03:34:24;97273.09;;;4.43;71.81
77005;BME280;67261;53.132;18.006;2023-12-22T03:36:51;97276.60;;;4.43;71.61
77005;BME280;67261;53.132;18.006;2023-12-22T03:39:18;97274.21;;;4.43;70.49
77005;BME280;67261;53.132;18.006;2023-12-22T03:41:45;97277.40;;;4.44;70.10
77005;BME280;67261;53.132;18.006;2023-12-22T03:44:12;97274.98;;;4.46;69.67
77005;BME280;67261;53.132;18.006;2023-12-22T03:46:39;97284.89;;;4.48;69.69
77005;BME280;67261;53.132;18.006;2023-12-22T03:49:05;97285.56;;;4.49;68.36
77005;BME280;67261;53.132;18.006;2023-12-22T03:51:32;97281.95;;;4.51;68.55
77005;BME280;67261;53.132;18.006;2023-12-22T03:53:59;97282.19;;;4.53;68.04
77005;BME280;67261;53.132;18.006;2023-12-22T03:56:26;97280.25;;;4.55;68.64
77005;BME280;67261;53.132;18.006;2023-12-22T03:58:55;97282.35;;;4.57;68.73
77005;BME280;67261;53.132;18.006;2023-12-22T04:01:22;97278.33;;;4.60;69.04
77005;BME280;67261;53.132;18.006;2023-12-22T04:03:49;97278.45;;;4.62;68.96
77005;BME280;67261;53.132;18.006;2023-12-22T04:06:16;97284.59;;;4.63;68.45
77005;BME280;67261;53.132;18.006;2023-12-22T04:08:42;97283.81;;;4.65;68.13
77005;BME280;67261;53.132;18.006;2023-12-22T04:11:09;97289.40;;;4.66;68.08
77005;BME280;67261;53.132;18.006;2023-12-22T04:13:36;97289.92;;;4.67;67.49
77005;BME280;67261;53.132;18.006;2023-12-22T04:16:03;97296.91;;;4.69;68.26
77005;BME280;67261;53.132;18.006;2023-12-22T04:18:31;97302.32;;;4.68;67.27
77005;BME280;67261;53.132;18.006;2023-12-22T04:20:59;97293.60;;;4.67;67.25
77005;BME280;67261;53.132;18.006;2023-12-22T04:23:25;97309.60;;;4.68;66.91
77005;BME280;67261;53.132;18.006;2023-12-22T04:25:52;97303.98;;;4.68;66.27
77005;BME280;67261;53.132;18.006;2023-12-22T04:28:19;97324.11;;;4.69;65.58
77005;BME280;67261;53.132;18.006;2023-12-22T04:30:46;97317.68;;;4.68;65.50
77005;BME280;67261;53.132;18.006;2023-12-22T04:33:13;97314.25;;;4.69;65.09
77005;BME280;67261;53.132;18.006;2023-12-22T04:35:40;97313.96;;;4.67;64.93
77005;BME280;67261;53.132;18.006;2023-12-22T04:38:07;97311.79;;;4.68;65.62
77005;BME280;67261;53.132;18.006;2023-12-22T04:40:34;97307.02;;;4.67;65.67
77005;BME280;67261;53.132;18.006;2023-12-22T04:43:02;97307.18;;;4.65;66.09
77005;BME280;67261;53.132;18.006;2023-12-22T04:45:29;97309.45;;;4.66;66.14
77005;BME280;67261;53.132;18.006;2023-12-22T04:47:56;97313.16;;;4.65;65.73
77005;BME280;67261;53.132;18.006;2023-12-22T04:50:24;97314.86;;;4.66;65.24
77005;BME280;67261;53.132;18.006;2023-12-22T04:52:50;97318.33;;;4.65;65.25
77005;BME280;67261;53.132;18.006;2023-12-22T04:55:17;97318.11;;;4.65;65.11
77005;BME280;67261;53.132;18.006;2023-12-22T04:57:44;97325.38;;;4.64;65.27
77005;BME280;67261;53.132;18.006;2023-12-22T05:00:12;97331.70;;;4.63;65.03
77005;BME280;67261;53.132;18.006;2023-12-22T05:02:39;97334.16;;;4.61;65.62
77005;BME280;67261;53.132;18.006;2023-12-22T05:05:06;97334.20;;;4.61;65.69
77005;BME280;67261;53.132;18.006;2023-12-22T05:07:34;97335.56;;;4.60;65.36
77005;BME280;67261;53.132;18.006;2023-12-22T05:10:01;97340.62;;;4.59;65.19
77005;BME280;67261;53.132;18.006;2023-12-22T05:12:28;97336.94;;;4.58;64.54
77005;BME280;67261;53.132;18.006;2023-12-22T05:14:55;97329.87;;;4.59;63.87
77005;BME280;67261;53.132;18.006;2023-12-22T05:17:22;97330.20;;;4.60;64.51
77005;BME280;67261;53.132;18.006;2023-12-22T05:19:49;97333.02;;;4.58;64.06
77005;BME280;67261;53.132;18.006;2023-12-22T05:22:16;97332.08;;;4.56;63.53
77005;BME280;67261;53.132;18.006;2023-12-22T05:24:42;97322.83;;;4.53;63.55
77005;BME280;67261;53.132;18.006;2023-12-22T05:27:09;97330.17;;;4.52;63.75
77005;BME280;67261;53.132;18.006;2023-12-22T05:29:36;97329.97;;;4.49;62.48
77005;BME280;67261;53.132;18.006;2023-12-22T05:32:03;97325.36;;;4.47;62.86
77005;BME280;67261;53.132;18.006;2023-12-22T05:34:30;97316.69;;;4.44;62.82
77005;BME280;67261;53.132;18.006;2023-12-22T05:36:57;97320.81;;;4.39;61.99
77005;BME280;67261;53.132;18.006;2023-12-22T05:39:24;97328.30;;;4.33;62.29
77005;BME280;67261;53.132;18.006;2023-12-22T05:41:51;97331.33;;;4.26;61.72
77005;BME280;67261;53.132;18.006;2023-12-22T05:44:18;97331.18;;;4.20;61.50
77005;BME280;67261;53.132;18.006;2023-12-22T05:46:45;97332.73;;;4.15;61.56
77005;BME280;67261;53.132;18.006;2023-12-22T05:49:12;97332.98;;;4.09;61.86
77005;BME280;67261;53.132;18.006;2023-12-22T05:51:39;97331.52;;;4.04;62.06
77005;BME280;67261;53.132;18.006;2023-12-22T05:54:08;97334.98;;;4.00;62.32
77005;BME280;67261;53.132;18.006;2023-12-22T05:56:35;97331.84;;;3.96;62.63
77005;BME280;67261;53.132;18.006;2023-12-22T05:59:02;97332.76;;;3.92;62.54
77005;BME280;67261;53.132;18.006;2023-12-22T06:01:30;97338.39;;;3.89;62.29
77005;BME280;67261;53.132;18.006;2023-12-22T06:03:56;97335.83;;;3.87;62.15
77005;BME280;67261;53.132;18.006;2023-12-22T06:06:23;97338.42;;;3.86;62.65
77005;BME280;67261;53.132;18.006;2023-12-22T06:08:50;97342.11;;;3.82;62.29
77005;BME280;67261;53.132;18.006;2023-12-22T06:11:17;97340.00;;;3.80;62.76
77005;BME280;67261;53.132;18.006;2023-12-22T06:13:44;97340.16;;;3.80;63.17
77005;BME280;67261;53.132;18.006;2023-12-22T06:16:12;97345.98;;;3.81;63.14
77005;BME280;67261;53.132;18.006;2023-12-22T06:18:41;97339.80;;;3.80;63.64
77005;BME280;67261;53.132;18.006;2023-12-22T06:21:09;97338.36;;;3.79;64.15
77005;BME280;67261;53.132;18.006;2023-12-22T06:23:37;97340.35;;;3.79;64.22
77005;BME280;67261;53.132;18.006;2023-12-22T06:26:10;97333.04;;;3.78;64.38
77005;BME280;67261;53.132;18.006;2023-12-22T06:28:38;97345.31;;;3.76;64.47
77005;BME280;67261;53.132;18.006;2023-12-22T06:31:07;97349.52;;;3.77;64.19
77005;BME280;67261;53.132;18.006;2023-12-22T06:33:34;97355.16;;;3.77;63.59
77005;BME280;67261;53.132;18.006;2023-12-22T06:36:00;97361.01;;;3.77;63.78
77005;BME280;67261;53.132;18.006;2023-12-22T06:38:28;97360.43;;;3.76;63.78
77005;BME280;67261;53.132;18.006;2023-12-22T06:40:55;97369.17;;;3.72;64.57
77005;BME280;67261;53.132;18.006;2023-12-22T06:43:22;97388.78;;;3.67;65.13
77005;BME280;67261;53.132;18.006;2023-12-22T06:45:49;97402.88;;;3.64;65.88
77005;BME280;67261;53.132;18.006;2023-12-22T06:48:16;97413.35;;;3.61;66.63
77005;BME280;67261;53.132;18.006;2023-12-22T06:50:43;97394.95;;;3.56;67.39
77005;BME280;67261;53.132;18.006;2023-12-22T06:53:11;97386.19;;;3.49;67.95
77005;BME280;67261;53.132;18.006;2023-12-22T06:55:38;97379.05;;;3.42;68.45
77005;BME280;67261;53.132;18.006;2023-12-22T06:58:05;97377.06;;;3.36;68.60
77005;BME280;67261;53.132;18.006;2023-12-22T07:00:31;97371.75;;;3.32;68.71
77005;BME280;67261;53.132;18.006;2023-12-22T07:02:58;97368.84;;;3.29;68.67
77005;BME280;67261;53.132;18.006;2023-12-22T07:05:32;97372.08;;;3.27;68.47
77005;BME280;67261;53.132;18.006;2023-12-22T07:07:59;97378.08;;;3.26;68.37
77005;BME280;67261;53.132;18.006;2023-12-22T07:10:27;97380.02;;;3.28;68.22
77005;BME280;67261;53.132;18.006;2023-12-22T07:12:54;97377.64;;;3.31;67.94
77005;BME280;67261;53.132;18.006;2023-12-22T07:15:21;97356.73;;;3.33;67.06
77005;BME280;67261;53.132;18.006;2023-12-22T07:17:48;97361.89;;;3.35;66.41
77005;BME280;67261;53.132;18.006;2023-12-22T07:20:14;97358.32;;;3.38;66.29
77005;BME280;67261;53.132;18.006;2023-12-22T07:22:44;97352.55;;;3.42;65.78
77005;BME280;67261;53.132;18.006;2023-12-22T07:25:12;97350.35;;;3.47;65.10
77005;BME280;67261;53.132;18.006;2023-12-22T07:27:39;97349.73;;;3.53;65.23
77005;BME280;67261;53.132;18.006;2023-12-22T07:30:06;97344.86;;;3.57;64.38
77005;BME280;67261;53.132;18.006;2023-12-22T07:32:33;97343.73;;;3.62;64.41
77005;BME280;67261;53.132;18.006;2023-12-22T07:35:00;97348.48;;;3.67;63.77
77005;BME280;67261;53.132;18.006;2023-12-22T07:37:27;97350.89;;;3.73;63.55
77005;BME280;67261;53.132;18.006;2023-12-22T07:39:54;97354.75;;;3.78;63.10
77005;BME280;67261;53.132;18.006;2023-12-22T07:42:21;97360.38;;;3.82;62.98
77005;BME280;67261;53.132;18.006;2023-12-22T07:44:48;97358.79;;;3.86;62.93
77005;BME280;67261;53.132;18.006;2023-12-22T07:47:15;97356.79;;;3.88;62.28
77005;BME280;67261;53.132;18.006;2023-12-22T07:49:42;97358.25;;;3.89;62.03
77005;BME280;67261;53.132;18.006;2023-12-22T07:52:10;97348.55;;;3.88;61.83
77005;BME280;67261;53.132;18.006;2023-12-22T07:54:37;97347.74;;;3.88;61.96
77005;BME280;67261;53.132;18.006;2023-12-22T07:57:04;97343.38;;;3.88;61.56
77005;BME280;67261;53.132;18.006;2023-12-22T07:59:31;97338.23;;;3.89;61.37
77005;BME280;67261;53.132;18.006;2023-12-22T08:01:58;97349.04;;;3.89;61.46
77005;BME280;67261;53.132;18.006;2023-12-22T08:04:26;97350.21;;;3.89;61.46
77005;BME280;67261;53.132;18.006;2023-12-22T08:06:53;97348.03;;;3.89;61.66
77005;BME280;67261;53.132;18.006;2023-12-22T08:09:19;97357.02;;;3.87;61.86
77005;BME280;67261;53.132;18.006;2023-12-22T08:11:46;97375.45;;;3.87;62.08
77005;BME280;67261;53.132;18.006;2023-12-22T08:14:14;97363.48;;;3.88;62.16
77005;BME280;67261;53.132;18.006;2023-12-22T08:16:41;97361.60;;;3.91;62.18
77005;BME280;67261;53.132;18.006;2023-12-22T08:19:08;97363.54;;;3.99;62.58
77005;BME280;67261;53.132;18.006;2023-12-22T08:21:35;97368.88;;;4.10;62.65
77005;BME280;67261;53.132;18.006;2023-12-22T08:24:02;97373.64;;;4.19;62.65
77005;BME280;67261;53.132;18.006;2023-12-22T08:26:29;97367.77;;;4.25;62.17
77005;BME280;67261;53.132;18.006;2023-12-22T08:28:57;97378.27;;;4.25;62.94
77005;BME280;67261;53.132;18.006;2023-12-22T08:31:24;97382.26;;;4.20;64.10
77005;BME280;67261;53.132;18.006;2023-12-22T08:33:51;97387.90;;;4.11;65.23
77005;BME280;67261;53.132;18.006;2023-12-22T08:36:18;97390.89;;;4.03;65.55
77005;BME280;67261;53.132;18.006;2023-12-22T08:38:45;97387.55;;;3.95;66.44
77005;BME280;67261;53.132;18.006;2023-12-22T08:41:12;97389.63;;;3.89;67.07
77005;BME280;67261;53.132;18.006;2023-12-22T08:43:41;97389.61;;;3.81;67.62
77005;BME280;67261;53.132;18.006;2023-12-22T08:46:09;97384.45;;;3.73;68.02
77005;BME280;67261;53.132;18.006;2023-12-22T08:48:36;97378.41;;;3.62;68.45
77005;BME280;67261;53.132;18.006;2023-12-22T08:51:03;97370.30;;;3.53;68.92
77005;BME280;67261;53.132;18.006;2023-12-22T08:53:31;97367.34;;;3.46;69.22
77005;BME280;67261;53.132;18.006;2023-12-22T08:56:00;97362.44;;;3.42;69.34
77005;BME280;67261;53.132;18.006;2023-12-22T08:58:27;97357.95;;;3.46;69.62
77005;BME280;67261;53.132;18.006;2023-12-22T09:00:54;97352.48;;;3.57;69.49
77005;BME280;67261;53.132;18.006;2023-12-22T09:03:21;97362.83;;;3.72;69.41
77005;BME280;67261;53.132;18.006;2023-12-22T09:05:48;97350.50;;;3.91;68.92
77005;BME280;67261;53.132;18.006;2023-12-22T09:08:15;97347.63;;;4.05;68.72
77005;BME280;67261;53.132;18.006;2023-12-22T09:10:41;97343.98;;;4.13;68.33
77005;BME280;67261;53.132;18.006;2023-12-22T09:13:08;97348.16;;;4.20;68.12
77005;BME280;67261;53.132;18.006;2023-12-22T09:15:35;97354.38;;;4.28;67.96
77005;BME280;67261;53.132;18.006;2023-12-22T09:18:03;97352.64;;;4.38;67.82
77005;BME280;67261;53.132;18.006;2023-12-22T09:20:30;97352.62;;;4.45;67.49
77005;BME280;67261;53.132;18.006;2023-12-22T09:22:57;97352.83;;;4.46;67.32
77005;BME280;67261;53.132;18.006;2023-12-22T09:25:24;97358.61;;;4.47;67.06
77005;BME280;67261;53.132;18.006;2023-12-22T09:27:52;97354.33;;;4.48;67.00
77005;BME280;67261;53.132;18.006;2023-12-22T09:30:19;97354.04;;;4.49;66.82
77005;BME280;67261;53.132;18.006;2023-12-22T09:32:46;97350.59;;;4.55;66.94
77005;BME280;67261;53.132;18.006;2023-12-22T09:35:14;97354.98;;;4.67;66.62
77005;BME280;67261;53.132;18.006;2023-12-22T09:37:41;97347.80;;;4.72;66.56
77005;BME280;67261;53.132;18.006;2023-12-22T09:40:09;97350.70;;;4.75;66.73
77005;BME280;67261;53.132;18.006;2023-12-22T09:42:40;97347.72;;;4.75;66.56
77005;BME280;67261;53.132;18.006;2023-12-22T09:45:10;97355.19;;;4.72;66.73
77005;BME280;67261;53.132;18.006;2023-12-22T09:47:42;97350.40;;;4.65;66.90
77005;BME280;67261;53.132;18.006;2023-12-22T09:50:11;97356.59;;;4.60;67.18
77005;BME280;67261;53.132;18.006;2023-12-22T09:52:38;97359.23;;;4.53;67.40
77005;BME280;67261;53.132;18.006;2023-12-22T09:55:07;97354.48;;;4.44;67.34
77005;BME280;67261;53.132;18.006;2023-12-22T09:57:34;97354.02;;;4.37;67.89
77005;BME280;67261;53.132;18.006;2023-12-22T10:00:02;97354.14;;;4.32;67.98
77005;BME280;67261;53.132;18.006;2023-12-22T10:02:34;97363.55;;;4.28;68.39
77005;BME280;67261;53.132;18.006;2023-12-22T10:05:02;97360.45;;;4.29;68.67
77005;BME280;67261;53.132;18.006;2023-12-22T10:07:30;97360.23;;;4.29;68.74
77005;BME280;67261;53.132;18.006;2023-12-22T10:09:59;97357.77;;;4.29;69.01
77005;BME280;67261;53.132;18.006;2023-12-22T10:12:29;97357.61;;;4.28;69.43
77005;BME280;67261;53.132;18.006;2023-12-22T10:14:59;97361.15;;;4.25;69.62
77005;BME280;67261;53.132;18.006;2023-12-22T10:17:27;97357.98;;;4.23;70.03
77005;BME280;67261;53.132;18.006;2023-12-22T10:19:55;97369.52;;;4.18;70.22
77005;BME280;67261;53.132;18.006;2023-12-22T10:22:23;97365.06;;;4.14;70.45
77005;BME280;67261;53.132;18.006;2023-12-22T10:24:50;97366.91;;;4.10;70.89
77005;BME280;67261;53.132;18.006;2023-12-22T10:27:18;97365.26;;;4.04;71.43
77005;BME280;67261;53.132;18.006;2023-12-22T10:29:56;97359.05;;;3.94;71.73
77005;BME280;67261;53.132;18.006;2023-12-22T10:32:23;97359.67;;;3.85;71.88
77005;BME280;67261;53.132;18.006;2023-12-22T10:34:51;97352.10;;;3.81;72.36
77005;BME280;67261;53.132;18.006;2023-12-22T10:37:20;97352.29;;;3.78;72.61
77005;BME280;67261;53.132;18.006;2023-12-22T10:39:54;97349.23;;;3.77;72.85
77005;BME280;67261;53.132;18.006;2023-12-22T10:42:22;97346.04;;;3.79;73.06
77005;BME280;67261;53.132;18.006;2023-12-22T10:44:56;97347.23;;;3.81;73.05
77005;BME280;67261;53.132;18.006;2023-12-22T10:47:24;97349.05;;;3.84;73.03
77005;BME280;67261;53.132;18.006;2023-12-22T10:49:51;97339.02;;;3.88;72.76
77005;BME280;67261;53.132;18.006;2023-12-22T10:52:20;97344.52;;;3.88;72.81
77005;BME280;67261;53.132;18.006;2023-12-22T10:54:48;97340.98;;;3.89;73.21
77005;BME280;67261;53.132;18.006;2023-12-22T10:57:20;97325.80;;;3.89;73.16
77005;BME280;67261;53.132;18.006;2023-12-22T10:59:47;97325.02;;;3.86;73.18
77005;BME280;67261;53.132;18.006;2023-12-22T11:02:19;97325.19;;;3.87;73.16
77005;BME280;67261;53.132;18.006;2023-12-22T11:04:55;97320.95;;;3.89;72.96
77005;BME280;67261;53.132;18.006;2023-12-22T11:07:24;97321.88;;;3.94;72.83
77005;BME280;67261;53.132;18.006;2023-12-22T11:09:56;97320.86;;;3.96;72.87
77005;BME280;67261;53.132;18.006;2023-12-22T11:12:27;97315.11;;;3.98;72.60
77005;BME280;67261;53.132;18.006;2023-12-22T11:14:56;97306.80;;;4.00;72.65
77005;BME280;67261;53.132;18.006;2023-12-22T11:17:25;97309.45;;;3.97;72.73
77005;BME280;67261;53.132;18.006;2023-12-22T11:19:54;97309.27;;;3.93;72.63
77005;BME280;67261;53.132;18.006;2023-12-22T11:22:22;97316.77;;;3.90;72.95
77005;BME280;67261;53.132;18.006;2023-12-22T11:24:49;97314.48;;;3.84;73.02
77005;BME280;67261;53.132;18.006;2023-12-22T11:27:17;97313.98;;;3.81;73.36
77005;BME280;67261;53.132;18.006;2023-12-22T11:29:50;97315.73;;;3.78;73.33
77005;BME280;67261;53.132;18.006;2023-12-22T11:32:19;97305.92;;;3.76;73.55
77005;BME280;67261;53.132;18.006;2023-12-22T11:34:46;97298.20;;;3.72;73.77
77005;BME280;67261;53.132;18.006;2023-12-22T11:37:14;97304.18;;;3.70;73.73
77005;BME280;67261;53.132;18.006;2023-12-22T11:39:44;97309.44;;;3.67;73.84
77005;BME280;67261;53.132;18.006;2023-12-22T11:42:28;97323.95;;;3.66;73.92
77005;BME280;67261;53.132;18.006;2023-12-22T11:44:57;97323.48;;;3.63;74.56
77005;BME280;67261;53.132;18.006;2023-12-22T11:47:24;97335.73;;;3.59;74.81
77005;BME280;67261;53.132;18.006;2023-12-22T11:49:53;97343.25;;;3.55;74.92
77005;BME280;67261;53.132;18.006;2023-12-22T11:52:25;97347.52;;;3.51;75.18
77005;BME280;67261;53.132;18.006;2023-12-22T11:54:56;97347.98;;;3.45;75.47
77005;BME280;67261;53.132;18.006;2023-12-22T11:57:37;97351.70;;;3.36;75.95
77005;BME280;67261;53.132;18.006;2023-12-22T12:00:37;97357.71;;;3.27;76.09
77005;BME280;67261;53.132;18.006;2023-12-22T12:03:05;97357.81;;;3.23;76.38
77005;BME280;67261;53.132;18.006;2023-12-22T12:05:37;97357.80;;;3.22;76.42
77005;BME280;67261;53.132;18.006;2023-12-22T12:08:07;97360.65;;;3.20;76.76
77005;BME280;67261;53.132;18.006;2023-12-22T12:13:10;97353.76;;;3.14;77.05
77005;BME280;67261;53.132;18.006;2023-12-22T12:15:38;97356.23;;;3.12;77.11
77005;BME280;67261;53.132;18.006;2023-12-22T12:18:05;97367.25;;;3.14;77.18
77005;BME280;67261;53.132;18.006;2023-12-22T12:20:33;97366.99;;;3.17;77.03
77005;BME280;67261;53.132;18.006;2023-12-22T12:23:03;97364.13;;;3.20;77.20
77005;BME280;67261;53.132;18.006;2023-12-22T12:25:36;97358.52;;;3.22;77.29
77005;BME280;67261;53.132;18.006;2023-12-22T12:28:08;97356.94;;;3.23;77.16
77005;BME280;67261;53.132;18.006;2023-12-22T12:30:38;97358.59;;;3.24;77.43
77005;BME280;67261;53.132;18.006;2023-12-22T12:33:09;97360.16;;;3.25;77.44
77005;BME280;67261;53.132;18.006;2023-12-22T12:35:41;97356.79;;;3.26;77.40
77005;BME280;67261;53.132;18.006;2023-12-22T12:38:13;97345.96;;;3.27;77.53
77005;BME280;67261;53.132;18.006;2023-12-22T12:40:51;97346.98;;;3.27;77.39
77005;BME280;67261;53.132;18.006;2023-12-22T12:43:18;97349.07;;;3.26;77.51
77005;BME280;67261;53.132;18.006;2023-12-22T12:45:46;97348.40;;;3.26;77.64
77005;BME280;67261;53.132;18.006;2023-12-22T12:48:21;97351.05;;;3.23;77.91
77005;BME280;67261;53.132;18.006;2023-12-22T12:50:49;97348.77;;;3.22;77.81
77005;BME280;67261;53.132;18.006;2023-12-22T12:53:16;97344.52;;;3.19;77.76
77005;BME280;67261;53.132;18.006;2023-12-22T12:55:45;97350.98;;;3.15;77.93
77005;BME280;67261;53.132;18.006;2023-12-22T12:58:12;97342.05;;;3.13;78.08
77005;BME280;67261;53.132;18.006;2023-12-22T13:00:39;97343.39;;;3.12;77.90
77005;BME280;67261;53.132;18.006;2023-12-22T13:03:07;97354.17;;;3.12;78.05
77005;BME280;67261;53.132;18.006;2023-12-22T13:05:34;97350.64;;;3.12;78.07
77005;BME280;67261;53.132;18.006;2023-12-22T13:10:39;97359.22;;;3.12;78.52